メインページ
METAR-TAF:

METAR-TAF

空港 :

ナシュア, ニューハンプシャー州, アメリカ合衆国

緯度: 42-47N, 経度: 071-31W, 海抜: 61m

現時点の気象観測

当レポートは31分前の09:56(UTC)に作成
西/北西の風 5kt
気温 -2°C
湿度 69%
気圧 1009 hPa
視程: 16.1km
高度4100ftの千切れ雲あり
高度6000ftの千切れ雲あり
高度7500ftの曇り

METAR: KASH 230956Z AUTO 29005KT 10SM BKN041 BKN060 OVC075 M02/M07 A2981 RMK AO2 SLP101 T10171072

時間: 05:27 (10:27 UTC)


TAF: 見つかりません

4,000以上の空港の気象観測と天気予報(METAR報とTAF報)

利用可能な観測所は地図上に黄色い丸と赤い丸で示す。

丸の上にカーソルを重ねると観測所名を参照できる。

次にクリックすると気象観測と天気予報を参照できる。

マップの切り替え:黒色「×」印の緑ボタンをクリックして拡大、「-」印の緑ボタンをクリックして縮小、緑色の三角印をクリックして隣りの地図に切り替え


METAR-TAF: